Quick Links (Output Below):   Max & Min Temps   /   Climate Reports   /   Zone Forecasts
River Forecasts   /   Forestry Forecasts   /   Aviation Forecasts   /   Radars   /   Features

Terminal Aerodrome Forecast (Highfill)

Pick a Site:
Arkadelphia | El Dorado | Fayetteville | Fort Smith | Harrison | Highfill | Hot Springs | Jonesboro
Little Rock | Monticello | Mountain Home | Pine Bluff | Texarkana
 Forecast 

KXNA 170520Z 1706/1806 00000KT P6SM FEW010
     FM170800 00000KT 1SM BR BKN007
     FM171400 21005KT 4SM BR OVC015
     FM171500 20007KT P6SM BKN250 PROB30 1800/1806 1SM TSRA
      BKN020CB=


 Latest METARs (Observations) 
How to Decode METARs
05Z KXNA 170453Z AUTO 00000KT 8SM CLR 19/18 A3006 RMK AO2 SLP167
         T01890183
         
04Z KXNA 170353Z AUTO 00000KT 9SM CLR 19/18 A3006 RMK AO2 SLP168
         T01940183
         
03Z KXNA 170253Z AUTO 08003KT 10SM CLR 19/18 A3006 RMK AO2 SLP167
         T01940183 55001
         
02Z KXNA 170153Z 09003KT 10SM CLR 21/19 A3006 RMK AO2 SLP167
         T02060194
         
01Z KXNA 170053Z 18003KT 10SM FEW029 22/20 A3005 RMK AO2 SLP164
         T02170200
         
00Z KXNA 162353Z 00000KT 10SM OVC027 23/19 A3006 RMK AO2 SLP168
         T02330194 10244 20222 56011
         
***** Today's Observations (Above) *****


23Z KXNA 162253Z 00000KT 10SM SCT028 SCT044 24/19 A3007 RMK AO2 SLP170
         T02390194
         
22Z KXNA 162153Z 08005KT 10SM BKN013 23/19 A3007 RMK AO2 SLP172
         T02330194
         
21Z KXNA 162053Z 02006KT 9SM OVC013 23/20 A3009 RMK AO2 SLP178
         T02330200 58016
         
20Z KXNA 161953Z 04004KT 7SM OVC011 22/19 A3011 RMK AO2 SLP185
         T02220194
         
***** Yesterday's Observations (Above) *****


Back to Main Page
http://www.srh.noaa.gov/lzk/qfcst.php

USA.gov is the U.S. government's official web portal to all federal, state and local government web resources and services.